To NAV CANADA Home Page Login to a new session Search on AWWS site Feedback and Comments Disclaimer Vers la page française équivalente Tips FAQ What's new on the site To the Forecasts and Observations / NOTAM section To "File a Flight Plan" website Publications and other links Update of the User's profile FIC Telephone Numbers My Weather Data Folder Route Weather Data Regional Weather Data Local Weather Data To the Forecasts and Observations / NOTAM section
Request Generated 10/18/2017 at 03:59:33 UTC . Weather information available at that time is displayed.

METAR/TAF

ROBERVAL/QC    

METAR CYRJ 180300Z 24003KT 110V260 25SM OVC043 06/05 A2985 RMK SC8
SLP115=
SPECI CYRJ 180231Z 23003KT 220V280 20SM BKN029 06/05 A2984 RMK SC7
SLP113=
METAR CYRJ 180200Z 29006KT 8SM -SHRA FEW010 OVC052 07/05 A2983 RMK
SF1SC7 CVCTV CLD EMBD SLP111=
SPECI CYRJ 180143Z 30008G17KT 20SM -SHRA FEW013 BKN053 OVC100 06/05
A2983 RMK SF2SC4AC2 CVCTV CLD EMBD PRESRR SLP110=
SPECI CYRJ 180112Z 21014G21KT 25SM FEW030 SCT120 06/04 A2978 RMK
SC1AC4 SC TR SLP093=
METAR CYRJ 180100Z 22014G22KT 25SM FEW030 OVC110 06/04 A2979 RMK
SC2AC6 OCNL -SHRA SLP095=

*** REMARK        : Forecast period has ended; this was the last TAF issued
*** REMARQUE : La période de prévision est échue; ceci était le dernier TAF qui a été émis
TAF CYRJ 171938Z 1720/1802 21015G25KT P6SM SCT020 BKN070 TEMPO
1720/1802 P6SM -SHRA BKN020 OVC070
BECMG 1721/1723 22012KT
RMK NXT FCST WILL BE ISSUED AT 181145Z=
Your time UTC time
Weather data provided by Environment Canada and NAV CANADA